Time;durP1;ratioP1;P1;durP2;ratioP2;P2;SDS_P1;SDS_P2;PMS_P1;PMS_P2;Temp;Humidity;BMP_temperature;BMP_pressure;BME280_temperature;BME280_humidity;BME280_pressure;Samples;Min_cycle;Max_cycle;Signal;HPM_P1;HPM_P2
2024/04/25 00:01:38;;;;;;;4.75;3.42;;;5.60;75.40;;;;;;5417370;26;20682;-76
2024/04/25 00:04:07;;;;;;;6.10;5.00;;;5.70;74.90;;;;;;5417082;26;20257;-76
2024/04/25 00:06:36;;;;;;;5.40;3.85;;;5.70;75.10;;;;;;5417170;26;20221;-76
2024/04/25 00:09:07;;;;;;;5.05;4.05;;;5.80;75.40;;;;;;5416831;26;20204;-76
2024/04/25 00:11:36;;;;;;;5.47;3.95;;;5.80;74.50;;;;;;5417385;26;20263;-75
2024/04/25 00:14:04;;;;;;;5.00;3.60;;;5.80;73.80;;;;;;5417178;26;20244;-76
2024/04/25 00:16:33;;;;;;;4.55;3.33;;;5.90;73.30;;;;;;5416933;26;20756;-76
2024/04/25 00:19:02;;;;;;;5.20;2.97;;;5.90;73.10;;;;;;5416329;26;20213;-77
2024/04/25 00:21:30;;;;;;;5.38;3.55;;;5.90;73.10;;;;;;5417190;26;20216;-76
2024/04/25 00:24:00;;;;;;;5.03;3.55;;;5.90;73.00;;;;;;5416728;26;20251;-76
2024/04/25 00:26:31;;;;;;;5.38;3.85;;;5.90;72.80;;;;;;5416638;26;20703;-76
2024/04/25 00:29:00;;;;;;;5.82;3.75;;;5.80;72.50;;;;;;5419302;26;20571;-75
2024/04/25 00:31:28;;;;;;;4.70;3.22;;;5.90;72.80;;;;;;5420625;26;20258;-75
2024/04/25 00:33:58;;;;;;;4.65;3.65;;;5.90;72.50;;;;;;5420567;26;20216;-76
2024/04/25 00:36:27;;;;;;;8.82;5.38;;;5.80;72.50;;;;;;5420414;26;20262;-77
2024/04/25 00:38:55;;;;;;;5.40;3.55;;;5.80;72.50;;;;;;5419521;26;20275;-76
2024/04/25 00:41:24;;;;;;;5.60;3.92;;;5.80;72.60;;;;;;5420494;26;20220;-76
2024/04/25 00:43:55;;;;;;;5.97;3.90;;;5.80;73.70;;;;;;5420427;26;20255;-76
2024/04/25 00:46:24;;;;;;;4.70;3.45;;;5.70;72.50;;;;;;5420077;26;20217;-76
2024/04/25 00:48:54;;;;;;;5.22;3.58;;;5.70;72.90;;;;;;5419768;26;20228;-76
2024/04/25 00:51:26;;;;;;;5.05;3.55;;;5.70;72.80;;;;;;5420084;26;20255;-77
2024/04/25 00:53:54;;;;;;;3.97;3.00;;;5.70;72.80;;;;;;5420276;26;20251;-76
2024/04/25 00:56:24;;;;;;;6.22;3.67;;;5.70;72.60;;;;;;5419652;26;20240;-76
2024/04/25 00:58:59;;;;;;;6.07;3.70;;;5.70;72.80;;;;;;5419265;26;20232;-76
2024/04/25 01:01:29;;;;;;;4.63;3.70;;;5.70;72.80;;;;;;5419976;26;20216;-76
2024/04/25 01:04:01;;;;;;;5.38;3.90;;;5.70;72.50;;;;;;5419185;26;20224;-77
2024/04/25 01:06:32;;;;;;;7.55;4.13;;;5.70;72.40;;;;;;5419947;26;20228;-76
2024/04/25 01:09:01;;;;;;;7.30;3.95;;;5.70;72.40;;;;;;5419523;26;20270;-76
2024/04/25 01:11:32;;;;;;;5.05;3.25;;;5.70;72.20;;;;;;5419580;26;20213;-76
2024/04/25 01:14:04;;;;;;;7.38;3.53;;;5.60;72.40;;;;;;5419333;26;20270;-77
2024/04/25 01:16:33;;;;;;;5.63;4.25;;;5.60;73.30;;;;;;5419548;26;20282;-76
2024/04/25 01:19:01;;;;;;;5.70;4.35;;;5.50;73.40;;;;;;5419311;26;20228;-75
2024/04/25 01:21:30;;;;;;;5.97;4.20;;;5.50;74.10;;;;;;5419669;26;20295;-75
2024/04/25 01:24:03;;;;;;;7.03;4.70;;;5.50;74.20;;;;;;5419554;26;20246;-76
2024/04/25 01:26:35;;;;;;;7.20;5.15;;;5.50;74.40;;;;;;5419531;26;20248;-75
2024/04/25 01:29:05;;;;;;;5.90;4.70;;;5.50;74.30;;;;;;5418798;26;20306;-76
2024/04/25 01:31:34;;;;;;;8.20;6.65;;;5.60;74.30;;;;;;5419525;26;20263;-75
2024/04/25 01:34:03;;;;;;;8.70;7.90;;;5.60;73.70;;;;;;5419389;26;20251;-77
2024/04/25 01:36:37;;;;;;;11.40;10.40;;;5.70;73.80;;;;;;5419280;26;20220;-75
2024/04/25 01:39:06;;;;;;;11.55;10.57;;;5.60;73.40;;;;;;5417021;26;20259;-77
2024/04/25 01:41:38;;;;;;;9.25;8.35;;;5.70;73.50;;;;;;5419219;26;20217;-77
2024/04/25 01:44:07;;;;;;;6.07;5.47;;;5.70;73.50;;;;;;5419181;26;20220;-76
2024/04/25 01:46:35;;;;;;;6.40;5.40;;;5.70;73.50;;;;;;5419095;26;20251;-77
2024/04/25 01:49:04;;;;;;;5.22;4.63;;;5.70;73.40;;;;;;5418728;26;20329;-77
2024/04/25 01:51:33;;;;;;;10.68;4.18;;;5.70;73.40;;;;;;5419143;26;20255;-76
2024/04/25 01:54:01;;;;;;;6.85;3.70;;;5.70;73.40;;;;;;5419404;26;20255;-77
2024/04/25 01:56:32;;;;;;;5.05;3.42;;;5.80;71.60;;;;;;5418847;26;20702;-76
2024/04/25 01:59:03;;;;;;;5.38;4.03;;;5.80;71.70;;;;;;5418576;26;20232;-76
2024/04/25 02:01:32;;;;;;;4.70;3.60;;;5.70;71.30;;;;;;5418794;26;20279;-75
2024/04/25 02:04:00;;;;;;;4.63;3.15;;;5.80;71.50;;;;;;5419339;26;20319;-75
2024/04/25 02:06:29;;;;;;;4.72;3.22;;;5.80;71.60;;;;;;5418946;26;20571;-76
2024/04/25 02:08:58;;;;;;;5.78;3.25;;;5.70;70.50;;;;;;5418734;26;20228;-76
2024/04/25 02:11:26;;;;;;;6.45;3.72;;;5.70;70.80;;;;;;5418909;26;20690;-76
2024/04/25 02:13:55;;;;;;;5.72;3.20;;;5.70;71.20;;;;;;5418935;26;20220;-76
2024/04/25 02:16:26;;;;;;;6.10;3.90;;;5.70;70.70;;;;;;5419168;26;20537;-76
2024/04/25 02:18:55;;;;;;;5.40;3.55;;;5.70;70.90;;;;;;5418063;26;20310;-76
2024/04/25 02:26:52;;;;;;;4.15;3.20;;;5.60;70.70;;;;;;5421465;26;20297;-76
2024/04/25 02:29:21;;;;;;;6.57;4.68;;;5.60;70.10;;;;;;5418228;26;20271;-76
2024/04/25 02:31:52;;;;;;;7.00;3.95;;;5.60;70.20;;;;;;5418105;26;20232;-77
2024/04/25 02:34:21;;;;;;;4.93;3.20;;;5.60;69.80;;;;;;5417580;26;20228;-77
2024/04/25 02:36:49;;;;;;;4.47;2.53;;;5.50;69.60;;;;;;5418685;26;20251;-76
2024/04/25 02:39:18;;;;;;;4.75;3.50;;;5.50;70.10;;;;;;5418456;26;20259;-76
2024/04/25 02:41:47;;;;;;;5.15;3.45;;;5.40;70.00;;;;;;5418117;26;20229;-77
2024/04/25 02:44:15;;;;;;;4.82;3.53;;;5.40;70.50;;;;;;5418316;26;20216;-76
2024/04/25 02:46:41;;;;;;;4.95;3.20;;;5.50;70.00;;;;;;5418763;26;20217;-76
2024/04/25 02:49:14;;;;;;;5.97;4.10;;;5.40;70.30;;;;;;5418789;26;20556;-76
2024/04/25 02:51:41;;;;;;;5.47;3.88;;;5.40;70.50;;;;;;5416771;26;20271;-76
2024/04/25 02:54:10;;;;;;;4.95;3.55;;;5.50;70.00;;;;;;5416956;26;20790;-76
2024/04/25 02:56:36;;;;;;;5.45;3.50;;;5.40;70.10;;;;;;5417655;26;20271;-76
2024/04/25 02:59:04;;;;;;;5.65;3.28;;;5.40;70.00;;;;;;5418434;26;20608;-76
2024/04/25 03:01:31;;;;;;;6.13;3.83;;;5.50;70.10;;;;;;5418299;26;20225;-76
2024/04/25 03:03:59;;;;;;;4.55;3.85;;;5.50;69.10;;;;;;5418126;26;20220;-76
2024/04/25 03:06:29;;;;;;;4.40;3.25;;;5.40;69.40;;;;;;5418094;26;20212;-77
2024/04/25 03:08:57;;;;;;;6.03;3.55;;;5.50;69.40;;;;;;5417087;26;20232;-76
2024/04/25 03:11:23;;;;;;;5.55;3.13;;;5.50;69.20;;;;;;5417961;26;20216;-76
2024/04/25 03:13:52;;;;;;;7.50;3.00;;;5.40;68.80;;;;;;5417090;26;20758;-76
2024/04/25 03:16:18;;;;;;;4.65;3.28;;;5.40;69.40;;;;;;5417432;26;20236;-76
2024/04/25 03:18:47;;;;;;;9.00;5.15;;;5.40;69.60;;;;;;5417620;26;20270;-77
2024/04/25 03:21:13;;;;;;;7.70;5.50;;;5.40;69.50;;;;;;5417852;26;20213;-77
2024/04/25 03:23:44;;;;;;;5.90;4.68;;;5.40;69.00;;;;;;5418729;26;20228;-77
2024/04/25 03:26:10;;;;;;;9.73;4.40;;;5.30;69.30;;;;;;5417784;26;20251;-77
2024/04/25 03:28:39;;;;;;;6.30;4.67;;;5.30;69.00;;;;;;5417452;26;20592;-76
2024/04/25 03:31:05;;;;;;;7.15;4.78;;;5.30;68.90;;;;;;5417764;26;20578;-76
2024/04/25 03:33:34;;;;;;;8.40;4.90;;;5.30;68.90;;;;;;5417628;26;20228;-77
2024/04/25 03:36:02;;;;;;;5.85;4.43;;;5.30;68.90;;;;;;5417655;26;20737;-76
2024/04/25 03:38:31;;;;;;;5.10;3.40;;;5.30;69.00;;;;;;5417118;26;20228;-76
2024/04/25 03:41:02;;;;;;;5.38;3.50;;;5.20;69.30;;;;;;5417275;26;20232;-76
2024/04/25 03:43:31;;;;;;;7.07;4.20;;;5.20;70.00;;;;;;5417550;26;20255;-76
2024/04/25 03:46:00;;;;;;;4.78;3.20;;;5.30;70.30;;;;;;5417512;26;20253;-76
2024/04/25 03:48:28;;;;;;;5.63;3.60;;;5.40;70.20;;;;;;5417009;26;20263;-78
2024/04/25 03:50:57;;;;;;;5.15;3.78;;;5.40;69.90;;;;;;5417333;26;20216;-76
2024/04/25 03:53:26;;;;;;;6.88;3.90;;;5.40;70.10;;;;;;5417303;26;20212;-76
2024/04/25 03:55:54;;;;;;;4.60;4.03;;;5.40;69.70;;;;;;5417758;26;20220;-76
2024/04/25 03:58:26;;;;;;;5.32;3.83;;;5.40;70.50;;;;;;5416546;26;21090;-76
2024/04/25 04:00:55;;;;;;;6.20;4.45;;;5.50;70.70;;;;;;5417456;26;20317;-77
2024/04/25 04:03:24;;;;;;;6.88;5.47;;;5.50;70.50;;;;;;5418998;26;20228;-75
2024/04/25 04:05:52;;;;;;;7.63;5.68;;;5.60;70.80;;;;;;5420626;26;20244;-76
2024/04/25 04:08:22;;;;;;;6.00;5.40;;;5.60;69.90;;;;;;5420313;26;20232;-76
2024/04/25 04:10:51;;;;;;;6.88;4.40;;;5.50;70.60;;;;;;5420673;26;20220;-76
2024/04/25 04:13:19;;;;;;;5.10;3.88;;;5.60;71.20;;;;;;5420530;26;20251;-76
2024/04/25 04:15:51;;;;;;;5.00;3.90;;;5.60;71.70;;;;;;5420646;26;20345;-76
2024/04/25 04:18:19;;;;;;;4.57;3.45;;;5.60;71.40;;;;;;5420182;26;20232;-77
2024/04/25 04:20:50;;;;;;;6.13;3.33;;;5.60;71.10;;;;;;5420525;26;20216;-78
2024/04/25 04:23:19;;;;;;;5.18;3.60;;;5.70;71.30;;;;;;5420410;26;20213;-75
2024/04/25 04:25:48;;;;;;;4.82;2.92;;;5.70;71.30;;;;;;5420186;26;20216;-75
2024/04/25 04:28:16;;;;;;;3.95;2.97;;;5.70;71.30;;;;;;5419750;26;20228;-75
2024/04/25 04:30:46;;;;;;;4.03;2.88;;;5.70;71.60;;;;;;5420331;26;20221;-76
2024/04/25 04:33:17;;;;;;;7.10;4.68;;;5.70;71.50;;;;;;5419736;26;20232;-75
2024/04/25 04:35:46;;;;;;;4.97;3.40;;;5.80;72.00;;;;;;5420136;26;20216;-76
2024/04/25 04:38:15;;;;;;;4.28;2.80;;;5.80;72.20;;;;;;5419144;26;20719;-76
2024/04/25 04:40:44;;;;;;;5.20;3.35;;;5.70;72.20;;;;;;5420110;26;20220;-77
2024/04/25 04:43:13;;;;;;;6.85;3.95;;;5.80;72.30;;;;;;5420549;26;20545;-77
2024/04/25 04:45:43;;;;;;;6.78;4.85;;;5.80;72.00;;;;;;5419769;26;20259;-76
2024/04/25 04:48:12;;;;;;;4.78;3.40;;;5.80;71.90;;;;;;5419304;26;20668;-76
2024/04/25 04:50:43;;;;;;;5.18;3.55;;;5.80;71.90;;;;;;5419809;26;20255;-76
2024/04/25 04:53:12;;;;;;;7.15;4.45;;;5.80;72.60;;;;;;5419637;26;20536;-76
2024/04/25 04:55:42;;;;;;;9.00;4.80;;;5.80;72.00;;;;;;5419608;26;20259;-76
2024/04/25 04:58:10;;;;;;;8.27;5.60;;;5.80;71.30;;;;;;5419157;26;20270;-77
2024/04/25 05:00:39;;;;;;;7.95;5.75;;;5.70;71.60;;;;;;5417649;26;20354;-76
2024/04/25 05:03:10;;;;;;;9.60;4.43;;;5.70;72.00;;;;;;5384255;26;20252;-75
2024/04/25 05:05:38;;;;;;;7.80;3.85;;;5.60;71.50;;;;;;5384290;26;20255;-76
2024/04/25 05:08:11;;;;;;;5.95;3.80;;;5.50;72.00;;;;;;5390462;26;20722;-76
2024/04/25 05:10:40;;;;;;;5.70;4.38;;;5.50;72.40;;;;;;5418449;26;20232;-77
2024/04/25 05:13:09;;;;;;;4.65;3.85;;;5.50;73.50;;;;;;5419252;26;20277;-77
2024/04/25 05:15:38;;;;;;;5.72;4.95;;;5.40;73.90;;;;;;5419726;26;20217;-76
2024/04/25 05:18:07;;;;;;;6.55;3.83;;;5.40;74.00;;;;;;5418997;26;20247;-77
2024/04/25 05:20:36;;;;;;;5.25;3.65;;;5.40;74.30;;;;;;5418488;26;20339;-77
2024/04/25 05:23:05;;;;;;;6.82;4.82;;;5.30;75.10;;;;;;5419307;26;20247;-77
2024/04/25 05:25:36;;;;;;;8.40;4.70;;;5.40;76.00;;;;;;5419303;26;20208;-77
2024/04/25 05:28:08;;;;;;;7.25;5.50;;;5.40;75.70;;;;;;5415512;26;20726;-77
2024/04/25 05:30:36;;;;;;;8.27;4.90;;;5.40;75.10;;;;;;5417801;26;20224;-76
2024/04/25 05:33:07;;;;;;;5.60;4.00;;;5.40;75.40;;;;;;5417557;26;20233;-76
2024/04/25 05:35:36;;;;;;;10.52;5.22;;;5.40;75.30;;;;;;5418255;26;20353;-75
2024/04/25 05:38:05;;;;;;;7.07;4.85;;;5.30;76.00;;;;;;5413653;26;20291;-76
2024/04/25 05:40:37;;;;;;;7.90;4.35;;;5.20;77.10;;;;;;5417859;26;20255;-76
2024/04/25 05:43:05;;;;;;;5.78;4.10;;;5.20;77.70;;;;;;5417140;26;20773;-77
2024/04/25 05:45:34;;;;;;;5.35;2.95;;;5.10;77.50;;;;;;5413308;26;20275;-76
2024/04/25 05:48:03;;;;;;;6.72;4.00;;;5.10;78.20;;;;;;5415405;26;20267;-76
2024/04/25 05:50:31;;;;;;;5.43;4.00;;;5.00;79.00;;;;;;5416301;26;20232;-77
2024/04/25 05:53:02;;;;;;;5.53;3.92;;;5.00;79.50;;;;;;5416956;26;20263;-76
2024/04/25 05:55:30;;;;;;;7.57;4.28;;;5.10;80.50;;;;;;5417289;26;20279;-76
2024/04/25 05:58:02;;;;;;;6.10;3.92;;;5.10;79.20;;;;;;5417542;26;20275;-77
2024/04/25 06:00:30;;;;;;;5.80;4.25;;;5.20;79.40;;;;;;5417062;26;20228;-77
2024/04/25 06:03:00;;;;;;;7.85;4.43;;;5.20;79.40;;;;;;5415715;26;20229;-80
2024/04/25 06:05:29;;;;;;;6.40;4.00;;;5.20;79.40;;;;;;5416097;26;20274;-77
2024/04/25 06:07:57;;;;;;;6.35;4.20;;;5.10;79.50;;;;;;5417428;26;20566;-76
2024/04/25 06:10:26;;;;;;;5.80;3.90;;;5.10;80.70;;;;;;5417778;26;20221;-77
2024/04/25 06:12:55;;;;;;;8.75;5.50;;;5.20;80.50;;;;;;5416992;26;20598;-76
2024/04/25 06:15:26;;;;;;;5.03;4.30;;;5.30;80.50;;;;;;5417753;26;20255;-77
2024/04/25 06:17:56;;;;;;;7.00;4.47;;;5.30;80.10;;;;;;5417031;26;20228;-77
2024/04/25 06:20:25;;;;;;;6.78;4.38;;;5.30;79.90;;;;;;5417527;26;20216;-77
2024/04/25 06:22:53;;;;;;;6.78;4.88;;;5.40;79.20;;;;;;5417768;26;20690;-77
2024/04/25 06:25:22;;;;;;;8.25;4.45;;;5.40;79.50;;;;;;5416822;26;20703;-75
2024/04/25 06:27:51;;;;;;;5.57;3.30;;;5.50;79.70;;;;;;5416410;26;20228;-76
2024/04/25 06:30:19;;;;;;;6.57;4.40;;;5.60;78.80;;;;;;5415122;26;20232;-76
2024/04/25 06:32:50;;;;;;;5.60;3.60;;;5.60;79.00;;;;;;5418363;26;20690;-76
2024/04/25 06:35:19;;;;;;;5.72;4.28;;;5.60;79.80;;;;;;5417673;26;20255;-77
2024/04/25 06:37:47;;;;;;;6.95;4.63;;;5.80;79.80;;;;;;5417406;26;20287;-77
2024/04/25 06:40:17;;;;;;;6.57;4.05;;;5.90;79.40;;;;;;5417561;26;20255;-76
2024/04/25 06:42:45;;;;;;;7.47;4.68;;;6.00;76.10;;;;;;5414822;26;20777;-77
2024/04/25 06:45:16;;;;;;;6.30;3.55;;;6.00;75.70;;;;;;5418006;26;20216;-76
2024/04/25 06:47:45;;;;;;;8.50;4.13;;;6.10;76.00;;;;;;5418278;26;20217;-76
2024/04/25 06:50:16;;;;;;;8.10;3.85;;;6.20;76.90;;;;;;5418202;26;20251;-76
2024/04/25 06:52:45;;;;;;;4.63;4.00;;;6.30;76.20;;;;;;5418380;26;20216;-76
2024/04/25 06:55:14;;;;;;;6.38;3.63;;;6.40;73.70;;;;;;5417990;26;20251;-76
2024/04/25 06:57:42;;;;;;;4.65;3.20;;;6.50;74.20;;;;;;5418034;26;20225;-77
2024/04/25 07:00:13;;;;;;;5.80;3.63;;;6.60;71.50;;;;;;5418217;26;20213;-76
2024/04/25 07:02:42;;;;;;;9.20;3.72;;;6.60;72.60;;;;;;5418247;26;20278;-76
2024/04/25 07:05:11;;;;;;;5.85;3.78;;;6.70;72.40;;;;;;5418120;26;20536;-76
2024/04/25 07:07:42;;;;;;;5.93;4.57;;;6.80;71.60;;;;;;5418177;26;20263;-77
2024/04/25 07:10:11;;;;;;;5.35;3.55;;;6.80;70.10;;;;;;5418031;26;20528;-76
2024/04/25 07:12:40;;;;;;;7.63;3.50;;;6.70;70.30;;;;;;5417982;26;20678;-76
2024/04/25 07:15:09;;;;;;;5.95;3.92;;;6.80;70.40;;;;;;5417680;26;20564;-76
2024/04/25 07:17:38;;;;;;;3.80;2.63;;;6.90;71.40;;;;;;5417759;26;20216;-76
2024/04/25 07:20:08;;;;;;;4.85;3.03;;;7.10;72.10;;;;;;5417819;26;20216;-77
2024/04/25 07:22:36;;;;;;;7.18;3.63;;;7.30;70.20;;;;;;5417581;26;20307;-76
2024/04/25 07:25:11;;;;;;;6.25;3.70;;;7.30;69.20;;;;;;5418234;26;20213;-75
2024/04/25 07:27:40;;;;;;;10.35;3.40;;;7.50;71.00;;;;;;5417941;26;20224;-76
2024/04/25 07:30:13;;;;;;;4.32;3.33;;;7.70;70.40;;;;;;5417854;26;20262;-77
2024/04/25 07:32:42;;;;;;;4.85;3.03;;;7.90;69.90;;;;;;5417504;26;20263;-76
2024/04/25 07:35:14;;;;;;;5.40;3.47;;;8.10;66.90;;;;;;5417325;26;20220;-77
2024/04/25 07:37:43;;;;;;;4.80;3.40;;;8.30;67.10;;;;;;5417655;26;20213;-76
2024/04/25 07:40:14;;;;;;;3.55;2.85;;;8.60;65.50;;;;;;5417542;26;20251;-77
2024/04/25 07:42:43;;;;;;;4.20;3.30;;;8.80;64.00;;;;;;5417283;26;20267;-75
2024/04/25 07:45:12;;;;;;;3.97;3.40;;;9.20;64.30;;;;;;5417123;26;20212;-76
2024/04/25 07:47:40;;;;;;;5.55;3.67;;;9.40;60.70;;;;;;5417171;26;20245;-76
2024/04/25 07:50:09;;;;;;;6.10;4.05;;;9.60;62.80;;;;;;5417756;26;20212;-75
2024/04/25 07:52:37;;;;;;;5.43;3.72;;;9.80;59.60;;;;;;5417075;26;20212;-75
2024/04/25 07:55:07;;;;;;;6.00;3.25;;;9.90;59.20;;;;;;5417161;26;20538;-77
2024/04/25 07:57:38;;;;;;;6.63;4.00;;;10.00;58.00;;;;;;5417280;26;20588;-77
2024/04/25 08:00:09;;;;;;;4.25;3.53;;;10.20;56.40;;;;;;5417224;26;20216;-77
2024/04/25 08:02:38;;;;;;;5.72;3.10;;;10.30;54.60;;;;;;5417013;26;20263;-76
2024/04/25 08:05:08;;;;;;;5.07;3.45;;;10.30;53.30;;;;;;5416927;26;20216;-76
2024/04/25 08:07:38;;;;;;;5.57;3.50;;;10.30;53.80;;;;;;5413049;26;20263;-76
2024/04/25 08:10:08;;;;;;;4.50;2.95;;;10.40;53.50;;;;;;5416753;26;20220;-76
2024/04/25 08:12:42;;;;;;;4.70;3.50;;;10.40;53.60;;;;;;5416621;26;20254;-74
2024/04/25 08:15:10;;;;;;;4.88;2.85;;;10.40;53.50;;;;;;5416707;26;20679;-76
2024/04/25 08:17:39;;;;;;;4.43;3.42;;;10.50;53.40;;;;;;5415769;26;20220;-76
2024/04/25 08:20:08;;;;;;;4.45;3.05;;;10.50;52.70;;;;;;5416825;26;20246;-76
2024/04/25 08:22:37;;;;;;;4.88;3.20;;;10.50;53.10;;;;;;5416033;26;20220;-76
2024/04/25 08:25:06;;;;;;;4.53;3.17;;;10.50;51.10;;;;;;5416923;26;20217;-76
2024/04/25 08:27:35;;;;;;;6.18;3.00;;;10.50;50.40;;;;;;5416926;26;20539;-76
2024/04/25 08:30:07;;;;;;;4.50;2.90;;;10.50;51.50;;;;;;5416280;26;20318;-76
2024/04/25 08:32:35;;;;;;;5.88;3.05;;;10.50;51.90;;;;;;5416579;26;20259;-76
2024/04/25 08:35:04;;;;;;;4.18;2.67;;;10.50;51.10;;;;;;5416249;26;20259;-76
2024/04/25 08:37:35;;;;;;;4.93;3.00;;;10.50;51.90;;;;;;5416286;26;20251;-77
2024/04/25 08:40:03;;;;;;;4.78;3.50;;;10.60;51.40;;;;;;5416215;26;20279;-76
2024/04/25 08:42:33;;;;;;;4.80;2.65;;;10.60;50.50;;;;;;5416103;26;20221;-76
2024/04/25 08:45:02;;;;;;;5.95;3.38;;;10.60;50.40;;;;;;5416083;26;20216;-76
2024/04/25 08:47:35;;;;;;;4.93;3.13;;;10.50;50.60;;;;;;5415985;26;20627;-77
2024/04/25 08:50:06;;;;;;;4.90;3.00;;;10.50;50.70;;;;;;5419346;26;20217;-75
2024/04/25 08:52:35;;;;;;;4.93;3.50;;;10.50;50.40;;;;;;5419740;26;20751;-76
2024/04/25 08:55:05;;;;;;;4.63;2.75;;;10.50;51.20;;;;;;5419525;26;20224;-76
2024/04/25 08:57:34;;;;;;;4.15;3.05;;;10.60;51.00;;;;;;5418502;26;20284;-77
2024/04/25 09:00:02;;;;;;;5.40;3.20;;;10.60;50.20;;;;;;5419093;26;20232;-77
2024/04/25 09:02:37;;;;;;;4.35;2.45;;;10.60;50.20;;;;;;5415867;26;20229;-76
2024/04/25 09:05:10;;;;;;;4.95;2.88;;;10.70;49.70;;;;;;5419007;26;20291;-75
2024/04/25 09:07:40;;;;;;;5.50;3.28;;;10.80;50.40;;;;;;5419040;26;20559;-76
2024/04/25 09:10:09;;;;;;;6.32;3.53;;;11.10;49.80;;;;;;5419067;26;20263;-76
2024/04/25 09:12:38;;;;;;;4.27;2.73;;;11.30;50.80;;;;;;5418415;26;20213;-75
2024/04/25 09:15:08;;;;;;;4.28;2.70;;;11.60;50.00;;;;;;5419346;26;20494;-77
2024/04/25 09:17:39;;;;;;;3.73;2.37;;;11.80;47.70;;;;;;5419109;26;20209;-76
2024/04/25 09:20:08;;;;;;;3.77;2.40;;;11.70;46.70;;;;;;5418846;26;20975;-76
2024/04/25 09:22:37;;;;;;;7.50;2.50;;;11.70;48.00;;;;;;5419524;26;20458;-76
2024/04/25 09:25:06;;;;;;;3.37;2.07;;;11.60;47.20;;;;;;5415685;26;21065;-76
2024/04/25 09:27:35;;;;;;;6.10;3.30;;;11.60;47.00;;;;;;5419175;26;20841;-75
2024/04/25 09:30:04;;;;;;;5.53;2.40;;;11.70;47.20;;;;;;5419312;26;20454;-76
2024/04/25 09:32:33;;;;;;;4.17;2.70;;;11.70;46.70;;;;;;5419061;26;20462;-76
2024/04/25 09:35:04;;;;;;;4.67;3.00;;;11.80;47.20;;;;;;5419744;26;20477;-76
2024/04/25 09:37:33;;;;;;;3.30;1.97;;;11.90;46.10;;;;;;5418903;26;20506;-75
2024/04/25 09:40:02;;;;;;;3.80;2.27;;;12.00;44.60;;;;;;5418963;26;20556;-75
2024/04/25 09:42:32;;;;;;;3.20;2.13;;;12.00;46.40;;;;;;5418922;26;20500;-76
2024/04/25 09:45:03;;;;;;;3.13;1.93;;;12.10;44.20;;;;;;5419740;26;20465;-76
2024/04/25 09:47:36;;;;;;;4.17;2.03;;;12.10;44.80;;;;;;5418738;26;20818;-75
2024/04/25 09:50:13;;;;;;;3.07;2.17;;;12.10;45.40;;;;;;5418925;26;20801;-76
2024/04/25 09:52:45;;;;;;;4.80;2.17;;;12.20;44.10;;;;;;5418922;26;20511;-76
2024/04/25 09:55:19;;;;;;;3.90;2.30;;;12.20;43.20;;;;;;5419354;26;20457;-75
2024/04/25 09:57:52;;;;;;;3.40;2.10;;;12.30;45.20;;;;;;5418953;26;20465;-77
2024/04/25 10:00:23;;;;;;;3.73;2.37;;;12.40;43.30;;;;;;5417403;26;20454;-77
2024/04/25 10:02:52;;;;;;;4.77;2.23;;;12.40;41.00;;;;;;5418655;26;21011;-76
2024/04/25 10:05:23;;;;;;;3.57;2.10;;;12.40;40.40;;;;;;5418539;26;20462;-76
2024/04/25 10:07:52;;;;;;;5.00;2.07;;;12.40;42.00;;;;;;5419121;26;20577;-77
2024/04/25 10:10:22;;;;;;;2.90;2.00;;;12.50;41.80;;;;;;5419391;26;20449;-75
2024/04/25 10:12:54;;;;;;;4.00;3.00;;;12.60;43.00;;;;;;5418334;26;20797;-76
2024/04/25 10:15:30;;;;;;;4.20;2.43;;;12.80;40.80;;;;;;5418185;26;20506;-75
2024/04/25 10:17:59;;;;;;;4.10;2.00;;;12.80;41.40;;;;;;5418547;26;20466;-75
2024/04/25 10:20:30;;;;;;;3.73;2.20;;;12.80;42.10;;;;;;5418575;26;20458;-75
2024/04/25 10:22:59;;;;;;;5.53;2.13;;;12.70;40.00;;;;;;5419643;26;20450;-76
2024/04/25 10:25:28;;;;;;;5.03;2.50;;;12.60;39.90;;;;;;5418509;26;20450;-77
2024/04/25 10:27:58;;;;;;;4.90;2.23;;;12.50;41.10;;;;;;5417894;26;20838;-76
2024/04/25 10:30:27;;;;;;;5.87;2.87;;;12.40;41.20;;;;;;5418798;26;20458;-76
2024/04/25 10:32:55;;;;;;;3.93;2.53;;;12.40;41.40;;;;;;5418264;26;20457;-77
2024/04/25 10:35:24;;;;;;;3.73;2.23;;;12.40;41.70;;;;;;5418287;26;20498;-77
2024/04/25 10:37:56;;;;;;;3.77;2.67;;;12.40;40.80;;;;;;5418148;26;20458;-76
2024/04/25 10:40:28;;;;;;;2.60;1.70;;;12.30;40.00;;;;;;5418179;26;20462;-75
2024/04/25 10:43:00;;;;;;;3.93;2.10;;;12.10;40.30;;;;;;5418261;26;20533;-76
2024/04/25 10:45:30;;;;;;;4.70;2.40;;;11.90;41.80;;;;;;5418196;26;20493;-75
2024/04/25 10:47:59;;;;;;;3.43;2.80;;;11.80;40.80;;;;;;5417948;26;20979;-76
2024/04/25 10:50:29;;;;;;;3.73;2.23;;;11.60;38.90;;;;;;5417986;26;20466;-76
2024/04/25 10:53:01;;;;;;;3.23;2.13;;;11.50;41.30;;;;;;5418369;26;20446;-77
2024/04/25 10:55:29;;;;;;;3.00;1.90;;;11.50;41.10;;;;;;5418165;26;20462;-76
2024/04/25 10:57:59;;;;;;;4.10;1.50;;;11.60;41.80;;;;;;5418190;26;20460;-76
2024/04/25 11:00:28;;;;;;;5.93;2.77;;;11.50;39.90;;;;;;5418075;26;20455;-76
2024/04/25 11:03:00;;;;;;;3.13;2.17;;;11.40;41.70;;;;;;5418125;26;20451;-74
2024/04/25 11:05:29;;;;;;;3.97;3.07;;;11.40;41.80;;;;;;5418068;26;20466;-75
2024/04/25 11:08:00;;;;;;;3.50;1.87;;;11.40;39.60;;;;;;5415339;26;20462;-76
2024/04/25 11:10:30;;;;;;;4.70;2.77;;;11.30;38.00;;;;;;5417408;26;20910;-75
2024/04/25 11:13:00;;;;;;;5.30;2.47;;;11.20;39.10;;;;;;5417358;26;20525;-76
2024/04/25 11:15:31;;;;;;;3.57;2.20;;;11.30;40.00;;;;;;5417179;26;20464;-75
2024/04/25 11:18:02;;;;;;;3.10;1.70;;;11.50;40.80;;;;;;5416794;26;20466;-76
2024/04/25 11:20:31;;;;;;;3.43;2.03;;;11.80;41.70;;;;;;5417623;26;20514;-75
2024/04/25 11:23:15;;;;;;;2.97;1.70;;;12.10;41.10;;;;;;5417523;26;20826;-75
2024/04/25 11:25:44;;;;;;;4.60;1.60;;;12.40;39.30;;;;;;5417114;26;20457;-78
2024/04/25 11:28:13;;;;;;;3.40;1.40;;;12.80;39.30;;;;;;5416575;26;21084;-76
2024/04/25 11:30:42;;;;;;;3.93;2.13;;;13.10;37.90;;;;;;5417514;26;20967;-75
2024/04/25 11:33:11;;;;;;;2.97;1.70;;;13.30;36.60;;;;;;5416797;26;20500;-79
2024/04/25 11:35:39;;;;;;;3.20;2.10;;;13.40;35.40;;;;;;5416911;26;20466;-75
2024/04/25 11:38:16;;;;;;;5.13;3.37;;;13.30;31.70;;;;;;5417034;26;20466;-76
2024/04/25 11:40:45;;;;;;;2.83;1.60;;;13.20;32.50;;;;;;5417778;26;20494;-76
2024/04/25 11:43:15;;;;;;;3.30;1.93;;;13.20;32.50;;;;;;5417190;26;20499;-76
2024/04/25 11:45:44;;;;;;;3.23;2.10;;;13.20;31.80;;;;;;5416932;26;20469;-75
2024/04/25 11:48:18;;;;;;;3.37;2.00;;;13.10;32.20;;;;;;5415394;26;20573;-75
2024/04/25 11:50:47;;;;;;;3.77;2.07;;;13.10;32.20;;;;;;5415469;26;21051;-75
2024/04/25 11:53:15;;;;;;;2.80;1.70;;;13.10;32.20;;;;;;5416119;26;21044;-75
2024/04/25 11:55:45;;;;;;;4.40;1.60;;;13.10;32.50;;;;;;5416958;26;20470;-76
2024/04/25 11:58:14;;;;;;;2.60;1.07;;;13.10;34.40;;;;;;5416942;26;20513;-78
2024/04/25 12:00:47;;;;;;;2.63;1.13;;;13.00;32.20;;;;;;5381424;26;20504;-75
2024/04/25 12:03:16;;;;;;;3.87;1.83;;;13.00;31.00;;;;;;5381410;26;20514;-74
2024/04/25 12:05:45;;;;;;;5.60;1.50;;;13.00;31.10;;;;;;5381466;26;20838;-75
2024/04/25 12:08:14;;;;;;;3.00;1.33;;;13.00;31.30;;;;;;5381332;26;20500;-75
2024/04/25 12:10:50;;;;;;;4.40;1.63;;;13.20;32.40;;;;;;5381457;26;20451;-76
2024/04/25 12:13:19;;;;;;;4.30;1.47;;;13.30;30.90;;;;;;5381213;26;20511;-76
2024/04/25 12:15:47;;;;;;;2.63;1.23;;;13.40;32.10;;;;;;5381235;26;20452;-75
2024/04/25 12:18:16;;;;;;;4.30;1.60;;;13.60;32.60;;;;;;5381318;26;20455;-75
2024/04/25 12:20:44;;;;;;;3.13;1.50;;;13.70;33.60;;;;;;5381255;26;20460;-76
2024/04/25 12:23:13;;;;;;;4.00;1.87;;;13.80;33.00;;;;;;5381194;26;20451;-76
2024/04/25 12:25:46;;;;;;;4.97;2.33;;;13.90;34.40;;;;;;5384807;26;21033;-75
2024/04/25 12:28:15;;;;;;;4.13;1.97;;;13.80;35.20;;;;;;5384621;26;20455;-76
2024/04/25 12:30:43;;;;;;;4.90;1.93;;;13.70;36.60;;;;;;5384550;26;20451;-75
2024/04/25 12:33:12;;;;;;;3.50;1.97;;;13.60;37.20;;;;;;5384304;26;20452;-77
2024/04/25 12:35:40;;;;;;;3.10;1.80;;;13.40;36.80;;;;;;5384785;26;20454;-76
2024/04/25 12:38:09;;;;;;;3.77;1.90;;;13.30;38.40;;;;;;5384342;26;20503;-75
2024/04/25 12:40:38;;;;;;;3.53;2.10;;;13.20;39.20;;;;;;5384505;26;20833;-76
2024/04/25 12:43:09;;;;;;;4.20;1.87;;;13.10;39.60;;;;;;5384402;26;20451;-76
2024/04/25 12:45:39;;;;;;;6.80;2.53;;;13.00;40.50;;;;;;5384584;26;20467;-75
2024/04/25 12:48:11;;;;;;;3.33;1.90;;;13.00;41.40;;;;;;5384114;26;20500;-76
2024/04/25 12:50:40;;;;;;;3.90;1.93;;;13.00;41.50;;;;;;5384310;26;20459;-78
2024/04/25 12:53:11;;;;;;;3.93;2.10;;;13.10;40.40;;;;;;5384115;26;20980;-76
2024/04/25 12:55:39;;;;;;;3.10;2.10;;;13.10;41.40;;;;;;5384438;26;20511;-76
2024/04/25 12:58:11;;;;;;;2.90;1.80;;;13.20;39.30;;;;;;5383884;26;20515;-75
2024/04/25 13:00:41;;;;;;;3.17;1.90;;;13.20;38.50;;;;;;5384303;26;20459;-76
2024/04/25 13:03:10;;;;;;;3.80;1.60;;;13.30;39.00;;;;;;5384217;26;20459;-75
2024/04/25 13:05:38;;;;;;;3.47;2.17;;;13.30;36.60;;;;;;5384249;26;20448;-76
2024/04/25 13:08:08;;;;;;;4.43;2.30;;;13.30;37.40;;;;;;5384537;26;20458;-76
2024/04/25 13:10:37;;;;;;;2.87;1.70;;;13.40;38.90;;;;;;5383998;26;20458;-76